sensor_id;sensor_type;location;lat;lon;timestamp;P1;durP1;ratioP1;P2;durP2;ratioP2
74213;SDS011;62576;55.694;37.494;2022-10-13T00:00:16;8.55;;;4.55;;
74213;SDS011;62576;55.694;37.494;2022-10-13T00:02:48;10.25;;;4.78;;
74213;SDS011;62576;55.694;37.494;2022-10-13T00:05:18;10.18;;;4.50;;
74213;SDS011;62576;55.694;37.494;2022-10-13T00:07:48;11.30;;;4.20;;
74213;SDS011;62576;55.694;37.494;2022-10-13T00:10:18;10.00;;;3.95;;
74213;SDS011;62576;55.694;37.494;2022-10-13T00:12:49;15.77;;;4.65;;
74213;SDS011;62576;55.694;37.494;2022-10-13T00:15:19;9.20;;;4.43;;
74213;SDS011;62576;55.694;37.494;2022-10-13T00:17:51;6.82;;;3.90;;
74213;SDS011;62576;55.694;37.494;2022-10-13T00:20:21;9.45;;;4.25;;
74213;SDS011;62576;55.694;37.494;2022-10-13T00:22:51;9.52;;;3.83;;
74213;SDS011;62576;55.694;37.494;2022-10-13T00:25:21;10.40;;;4.57;;
74213;SDS011;62576;55.694;37.494;2022-10-13T00:27:51;14.07;;;4.40;;
74213;SDS011;62576;55.694;37.494;2022-10-13T00:30:21;10.70;;;4.03;;
74213;SDS011;62576;55.694;37.494;2022-10-13T00:32:53;9.77;;;3.70;;
74213;SDS011;62576;55.694;37.494;2022-10-13T00:35:22;7.40;;;3.58;;
74213;SDS011;62576;55.694;37.494;2022-10-13T00:37:52;9.15;;;4.05;;
74213;SDS011;62576;55.694;37.494;2022-10-13T00:40:22;11.25;;;4.65;;
74213;SDS011;62576;55.694;37.494;2022-10-13T00:42:52;10.43;;;4.13;;
74213;SDS011;62576;55.694;37.494;2022-10-13T00:45:22;10.30;;;4.40;;
74213;SDS011;62576;55.694;37.494;2022-10-13T00:47:55;9.00;;;3.92;;
74213;SDS011;62576;55.694;37.494;2022-10-13T00:50:31;7.85;;;3.88;;
74213;SDS011;62576;55.694;37.494;2022-10-13T00:53:05;8.40;;;3.72;;
74213;SDS011;62576;55.694;37.494;2022-10-13T00:55:36;10.95;;;4.00;;
74213;SDS011;62576;55.694;37.494;2022-10-13T00:58:08;11.20;;;3.90;;
74213;SDS011;62576;55.694;37.494;2022-10-13T01:00:44;13.25;;;5.07;;
74213;SDS011;62576;55.694;37.494;2022-10-13T01:03:17;10.30;;;4.38;;
74213;SDS011;62576;55.694;37.494;2022-10-13T01:05:45;8.73;;;4.22;;
74213;SDS011;62576;55.694;37.494;2022-10-13T01:08:18;11.30;;;4.75;;
74213;SDS011;62576;55.694;37.494;2022-10-13T01:10:52;10.48;;;4.60;;
74213;SDS011;62576;55.694;37.494;2022-10-13T01:13:32;12.68;;;5.22;;
74213;SDS011;62576;55.694;37.494;2022-10-13T01:16:08;10.45;;;4.60;;
74213;SDS011;62576;55.694;37.494;2022-10-13T01:18:45;15.90;;;6.40;;
74213;SDS011;62576;55.694;37.494;2022-10-13T01:21:23;11.82;;;4.93;;
74213;SDS011;62576;55.694;37.494;2022-10-13T01:24:11;12.57;;;5.63;;
74213;SDS011;62576;55.694;37.494;2022-10-13T01:30:16;11.88;;;5.95;;
74213;SDS011;62576;55.694;37.494;2022-10-13T01:32:56;11.73;;;5.03;;
74213;SDS011;62576;55.694;37.494;2022-10-13T01:36:04;11.20;;;4.97;;
74213;SDS011;62576;55.694;37.494;2022-10-13T01:38:44;12.88;;;5.10;;
74213;SDS011;62576;55.694;37.494;2022-10-13T01:41:20;15.85;;;4.70;;
74213;SDS011;62576;55.694;37.494;2022-10-13T01:43:59;12.63;;;5.13;;
74213;SDS011;62576;55.694;37.494;2022-10-13T01:46:36;12.20;;;4.90;;
74213;SDS011;62576;55.694;37.494;2022-10-13T01:49:08;16.30;;;4.95;;
74213;SDS011;62576;55.694;37.494;2022-10-13T01:51:40;10.90;;;4.38;;
74213;SDS011;62576;55.694;37.494;2022-10-13T01:54:11;11.10;;;5.13;;
74213;SDS011;62576;55.694;37.494;2022-10-13T01:56:49;10.70;;;4.72;;
74213;SDS011;62576;55.694;37.494;2022-10-13T01:59:20;10.85;;;4.90;;
74213;SDS011;62576;55.694;37.494;2022-10-13T02:02:01;11.32;;;5.55;;
74213;SDS011;62576;55.694;37.494;2022-10-13T02:04:38;13.30;;;5.90;;
74213;SDS011;62576;55.694;37.494;2022-10-13T02:07:17;11.73;;;4.85;;
74213;SDS011;62576;55.694;37.494;2022-10-13T02:09:52;9.30;;;4.07;;
74213;SDS011;62576;55.694;37.494;2022-10-13T02:12:30;12.18;;;4.90;;
74213;SDS011;62576;55.694;37.494;2022-10-13T02:15:08;10.55;;;4.45;;
74213;SDS011;62576;55.694;37.494;2022-10-13T02:17:46;9.40;;;4.57;;
74213;SDS011;62576;55.694;37.494;2022-10-13T02:20:16;13.85;;;5.22;;
74213;SDS011;62576;55.694;37.494;2022-10-13T02:22:49;9.93;;;5.13;;
74213;SDS011;62576;55.694;37.494;2022-10-13T02:25:26;13.10;;;6.05;;
74213;SDS011;62576;55.694;37.494;2022-10-13T02:27:57;12.27;;;6.13;;
74213;SDS011;62576;55.694;37.494;2022-10-13T02:30:29;11.75;;;5.53;;
74213;SDS011;62576;55.694;37.494;2022-10-13T02:33:01;12.57;;;5.53;;
74213;SDS011;62576;55.694;37.494;2022-10-13T02:35:32;15.40;;;5.63;;
74213;SDS011;62576;55.694;37.494;2022-10-13T02:38:02;13.45;;;6.13;;
74213;SDS011;62576;55.694;37.494;2022-10-13T02:40:32;15.30;;;5.93;;
74213;SDS011;62576;55.694;37.494;2022-10-13T02:43:02;12.68;;;5.93;;
74213;SDS011;62576;55.694;37.494;2022-10-13T02:45:32;12.75;;;5.82;;
74213;SDS011;62576;55.694;37.494;2022-10-13T02:48:04;13.25;;;6.45;;
74213;SDS011;62576;55.694;37.494;2022-10-13T02:50:34;12.52;;;5.78;;
74213;SDS011;62576;55.694;37.494;2022-10-13T02:53:04;14.38;;;6.45;;
74213;SDS011;62576;55.694;37.494;2022-10-13T02:55:36;14.43;;;6.15;;
74213;SDS011;62576;55.694;37.494;2022-10-13T02:58:06;13.15;;;5.10;;
74213;SDS011;62576;55.694;37.494;2022-10-13T03:00:36;13.20;;;5.50;;
74213;SDS011;62576;55.694;37.494;2022-10-13T03:03:08;13.98;;;6.05;;
74213;SDS011;62576;55.694;37.494;2022-10-13T03:05:39;13.27;;;6.60;;
74213;SDS011;62576;55.694;37.494;2022-10-13T03:08:09;12.70;;;6.18;;
74213;SDS011;62576;55.694;37.494;2022-10-13T03:10:39;12.20;;;5.40;;
74213;SDS011;62576;55.694;37.494;2022-10-13T03:13:09;12.88;;;5.43;;
74213;SDS011;62576;55.694;37.494;2022-10-13T03:15:39;11.57;;;5.10;;
74213;SDS011;62576;55.694;37.494;2022-10-13T03:18:11;11.70;;;4.80;;
74213;SDS011;62576;55.694;37.494;2022-10-13T03:20:40;12.25;;;5.75;;
74213;SDS011;62576;55.694;37.494;2022-10-13T03:23:10;15.20;;;5.85;;
74213;SDS011;62576;55.694;37.494;2022-10-13T03:25:40;11.45;;;5.65;;
74213;SDS011;62576;55.694;37.494;2022-10-13T03:28:10;12.48;;;5.60;;
74213;SDS011;62576;55.694;37.494;2022-10-13T03:30:40;12.82;;;5.70;;
74213;SDS011;62576;55.694;37.494;2022-10-13T03:33:11;11.80;;;5.30;;
74213;SDS011;62576;55.694;37.494;2022-10-13T03:35:41;9.70;;;5.10;;
74213;SDS011;62576;55.694;37.494;2022-10-13T03:38:11;14.07;;;5.80;;
74213;SDS011;62576;55.694;37.494;2022-10-13T03:40:41;13.00;;;6.78;;
74213;SDS011;62576;55.694;37.494;2022-10-13T03:43:11;11.68;;;4.80;;
74213;SDS011;62576;55.694;37.494;2022-10-13T03:45:41;14.48;;;6.60;;
74213;SDS011;62576;55.694;37.494;2022-10-13T03:48:12;12.05;;;5.68;;
74213;SDS011;62576;55.694;37.494;2022-10-13T03:50:42;10.20;;;5.40;;
74213;SDS011;62576;55.694;37.494;2022-10-13T03:53:12;13.05;;;5.93;;
74213;SDS011;62576;55.694;37.494;2022-10-13T03:55:47;11.43;;;6.07;;
74213;SDS011;62576;55.694;37.494;2022-10-13T03:58:18;13.20;;;6.10;;
74213;SDS011;62576;55.694;37.494;2022-10-13T04:00:48;11.93;;;5.45;;
74213;SDS011;62576;55.694;37.494;2022-10-13T04:03:20;14.48;;;5.97;;
74213;SDS011;62576;55.694;37.494;2022-10-13T04:05:50;12.48;;;4.82;;
74213;SDS011;62576;55.694;37.494;2022-10-13T04:08:20;15.13;;;6.90;;
74213;SDS011;62576;55.694;37.494;2022-10-13T04:10:56;12.30;;;5.53;;
74213;SDS011;62576;55.694;37.494;2022-10-13T04:13:27;11.82;;;5.40;;
74213;SDS011;62576;55.694;37.494;2022-10-13T04:16:00;11.75;;;6.28;;
74213;SDS011;62576;55.694;37.494;2022-10-13T04:18:32;22.77;;;12.43;;
74213;SDS011;62576;55.694;37.494;2022-10-13T04:21:06;20.35;;;9.50;;
74213;SDS011;62576;55.694;37.494;2022-10-13T04:23:37;22.00;;;10.73;;
74213;SDS011;62576;55.694;37.494;2022-10-13T04:26:13;22.23;;;10.23;;
74213;SDS011;62576;55.694;37.494;2022-10-13T04:28:45;21.25;;;11.07;;
74213;SDS011;62576;55.694;37.494;2022-10-13T04:31:16;17.98;;;9.18;;
74213;SDS011;62576;55.694;37.494;2022-10-13T04:33:50;16.38;;;8.68;;
74213;SDS011;62576;55.694;37.494;2022-10-13T04:36:22;16.25;;;7.43;;
74213;SDS011;62576;55.694;37.494;2022-10-13T04:38:53;13.43;;;6.32;;
74213;SDS011;62576;55.694;37.494;2022-10-13T04:41:23;15.95;;;7.43;;
74213;SDS011;62576;55.694;37.494;2022-10-13T04:43:55;10.50;;;5.68;;
74213;SDS011;62576;55.694;37.494;2022-10-13T04:46:26;9.80;;;5.55;;
74213;SDS011;62576;55.694;37.494;2022-10-13T04:48:58;11.68;;;6.72;;
74213;SDS011;62576;55.694;37.494;2022-10-13T04:51:28;8.77;;;4.68;;
74213;SDS011;62576;55.694;37.494;2022-10-13T04:54:00;11.65;;;5.65;;
74213;SDS011;62576;55.694;37.494;2022-10-13T04:56:32;10.30;;;5.15;;
74213;SDS011;62576;55.694;37.494;2022-10-13T04:59:02;10.55;;;4.75;;
74213;SDS011;62576;55.694;37.494;2022-10-13T05:01:33;9.98;;;5.72;;
74213;SDS011;62576;55.694;37.494;2022-10-13T05:04:02;15.80;;;6.05;;
74213;SDS011;62576;55.694;37.494;2022-10-13T05:06:34;12.77;;;5.25;;
74213;SDS011;62576;55.694;37.494;2022-10-13T05:09:05;13.20;;;5.35;;
74213;SDS011;62576;55.694;37.494;2022-10-13T05:11:35;10.38;;;5.05;;
74213;SDS011;62576;55.694;37.494;2022-10-13T05:14:05;12.10;;;6.05;;
74213;SDS011;62576;55.694;37.494;2022-10-13T05:16:35;11.32;;;4.80;;
74213;SDS011;62576;55.694;37.494;2022-10-13T05:19:06;10.23;;;5.10;;
74213;SDS011;62576;55.694;37.494;2022-10-13T05:21:37;9.38;;;5.07;;
74213;SDS011;62576;55.694;37.494;2022-10-13T05:24:07;10.25;;;4.90;;
74213;SDS011;62576;55.694;37.494;2022-10-13T05:26:40;16.53;;;5.70;;
74213;SDS011;62576;55.694;37.494;2022-10-13T05:29:17;12.15;;;5.40;;
74213;SDS011;62576;55.694;37.494;2022-10-13T05:31:47;12.80;;;5.22;;
74213;SDS011;62576;55.694;37.494;2022-10-13T05:34:19;14.63;;;5.10;;
74213;SDS011;62576;55.694;37.494;2022-10-13T05:36:49;13.95;;;5.00;;
74213;SDS011;62576;55.694;37.494;2022-10-13T05:39:18;17.30;;;7.97;;
74213;SDS011;62576;55.694;37.494;2022-10-13T05:41:48;17.98;;;6.63;;
74213;SDS011;62576;55.694;37.494;2022-10-13T05:44:18;19.52;;;8.73;;
74213;SDS011;62576;55.694;37.494;2022-10-13T05:46:49;22.77;;;8.68;;
74213;SDS011;62576;55.694;37.494;2022-10-13T05:49:21;19.85;;;8.57;;
74213;SDS011;62576;55.694;37.494;2022-10-13T05:51:51;24.13;;;10.52;;
74213;SDS011;62576;55.694;37.494;2022-10-13T05:54:24;21.90;;;10.40;;
74213;SDS011;62576;55.694;37.494;2022-10-13T05:56:58;24.23;;;10.80;;
74213;SDS011;62576;55.694;37.494;2022-10-13T05:59:31;22.98;;;9.25;;
74213;SDS011;62576;55.694;37.494;2022-10-13T06:02:04;20.52;;;8.43;;
74213;SDS011;62576;55.694;37.494;2022-10-13T06:04:37;17.17;;;7.97;;
74213;SDS011;62576;55.694;37.494;2022-10-13T06:07:10;23.27;;;8.48;;
74213;SDS011;62576;55.694;37.494;2022-10-13T06:09:40;19.05;;;7.35;;
74213;SDS011;62576;55.694;37.494;2022-10-13T06:12:11;18.95;;;7.82;;
74213;SDS011;62576;55.694;37.494;2022-10-13T06:14:41;15.43;;;7.55;;
74213;SDS011;62576;55.694;37.494;2022-10-13T06:17:12;15.93;;;7.07;;
74213;SDS011;62576;55.694;37.494;2022-10-13T06:19:44;12.00;;;6.03;;
74213;SDS011;62576;55.694;37.494;2022-10-13T06:22:14;12.55;;;5.90;;
74213;SDS011;62576;55.694;37.494;2022-10-13T06:24:44;13.45;;;5.70;;
74213;SDS011;62576;55.694;37.494;2022-10-13T06:27:14;16.73;;;7.45;;
74213;SDS011;62576;55.694;37.494;2022-10-13T06:29:44;11.25;;;5.85;;
74213;SDS011;62576;55.694;37.494;2022-10-13T06:32:16;12.25;;;5.28;;
74213;SDS011;62576;55.694;37.494;2022-10-13T06:34:48;12.30;;;4.90;;
74213;SDS011;62576;55.694;37.494;2022-10-13T06:37:18;8.82;;;5.13;;
74213;SDS011;62576;55.694;37.494;2022-10-13T06:39:48;11.38;;;4.32;;
74213;SDS011;62576;55.694;37.494;2022-10-13T06:42:18;16.58;;;5.20;;
74213;SDS011;62576;55.694;37.494;2022-10-13T06:44:48;13.00;;;5.40;;
74213;SDS011;62576;55.694;37.494;2022-10-13T06:47:18;15.85;;;5.35;;
74213;SDS011;62576;55.694;37.494;2022-10-13T06:49:49;12.10;;;5.50;;
74213;SDS011;62576;55.694;37.494;2022-10-13T06:52:20;11.40;;;5.40;;
74213;SDS011;62576;55.694;37.494;2022-10-13T06:54:50;10.15;;;4.97;;
74213;SDS011;62576;55.694;37.494;2022-10-13T06:57:19;14.75;;;6.03;;
74213;SDS011;62576;55.694;37.494;2022-10-13T06:59:52;15.50;;;6.53;;
74213;SDS011;62576;55.694;37.494;2022-10-13T07:02:22;17.38;;;6.18;;
74213;SDS011;62576;55.694;37.494;2022-10-13T07:04:50;12.38;;;5.40;;
74213;SDS011;62576;55.694;37.494;2022-10-13T07:07:21;15.43;;;6.40;;
74213;SDS011;62576;55.694;37.494;2022-10-13T07:09:51;12.35;;;5.90;;
74213;SDS011;62576;55.694;37.494;2022-10-13T07:12:21;14.57;;;6.00;;
74213;SDS011;62576;55.694;37.494;2022-10-13T07:14:51;20.67;;;6.70;;
74213;SDS011;62576;55.694;37.494;2022-10-13T07:17:20;11.05;;;5.63;;
74213;SDS011;62576;55.694;37.494;2022-10-13T07:19:52;12.65;;;6.18;;
74213;SDS011;62576;55.694;37.494;2022-10-13T07:22:22;13.82;;;7.60;;
74213;SDS011;62576;55.694;37.494;2022-10-13T07:24:52;21.73;;;10.55;;
74213;SDS011;62576;55.694;37.494;2022-10-13T07:27:24;21.27;;;9.82;;
74213;SDS011;62576;55.694;37.494;2022-10-13T07:29:54;22.77;;;13.18;;
74213;SDS011;62576;55.694;37.494;2022-10-13T07:32:24;24.05;;;11.25;;
74213;SDS011;62576;55.694;37.494;2022-10-13T07:34:55;25.58;;;15.25;;
74213;SDS011;62576;55.694;37.494;2022-10-13T07:37:25;25.17;;;13.98;;
74213;SDS011;62576;55.694;37.494;2022-10-13T07:39:55;35.83;;;20.08;;
74213;SDS011;62576;55.694;37.494;2022-10-13T07:42:27;28.85;;;16.30;;
74213;SDS011;62576;55.694;37.494;2022-10-13T07:44:57;23.38;;;12.27;;
74213;SDS011;62576;55.694;37.494;2022-10-13T07:47:27;16.75;;;7.18;;
74213;SDS011;62576;55.694;37.494;2022-10-13T07:49:59;15.18;;;8.07;;
74213;SDS011;62576;55.694;37.494;2022-10-13T07:52:28;18.70;;;8.88;;
74213;SDS011;62576;55.694;37.494;2022-10-13T07:54:59;18.17;;;6.80;;
74213;SDS011;62576;55.694;37.494;2022-10-13T07:57:28;19.83;;;10.90;;
74213;SDS011;62576;55.694;37.494;2022-10-13T07:59:59;17.10;;;9.13;;
74213;SDS011;62576;55.694;37.494;2022-10-13T08:02:29;22.95;;;11.35;;
74213;SDS011;62576;55.694;37.494;2022-10-13T08:04:56;17.63;;;10.15;;
74213;SDS011;62576;55.694;37.494;2022-10-13T08:07:28;19.00;;;10.10;;
74213;SDS011;62576;55.694;37.494;2022-10-13T08:09:58;23.55;;;11.90;;
74213;SDS011;62576;55.694;37.494;2022-10-13T08:12:28;17.80;;;9.35;;
74213;SDS011;62576;55.694;37.494;2022-10-13T08:14:58;18.80;;;8.73;;
74213;SDS011;62576;55.694;37.494;2022-10-13T08:17:27;14.93;;;8.50;;
74213;SDS011;62576;55.694;37.494;2022-10-13T08:19:59;17.27;;;7.53;;
74213;SDS011;62576;55.694;37.494;2022-10-13T08:22:29;15.60;;;8.05;;
74213;SDS011;62576;55.694;37.494;2022-10-13T08:25:01;16.30;;;6.53;;
74213;SDS011;62576;55.694;37.494;2022-10-13T08:27:34;12.23;;;7.25;;
74213;SDS011;62576;55.694;37.494;2022-10-13T08:30:06;17.67;;;7.25;;
74213;SDS011;62576;55.694;37.494;2022-10-13T08:32:37;13.57;;;6.72;;
74213;SDS011;62576;55.694;37.494;2022-10-13T08:35:09;11.23;;;5.22;;
74213;SDS011;62576;55.694;37.494;2022-10-13T08:37:40;9.55;;;6.50;;
74213;SDS011;62576;55.694;37.494;2022-10-13T08:40:10;12.45;;;6.90;;
74213;SDS011;62576;55.694;37.494;2022-10-13T08:42:43;16.35;;;9.50;;
74213;SDS011;62576;55.694;37.494;2022-10-13T08:45:15;13.35;;;7.45;;
74213;SDS011;62576;55.694;37.494;2022-10-13T08:47:50;11.18;;;6.47;;
74213;SDS011;62576;55.694;37.494;2022-10-13T08:50:26;13.05;;;7.10;;
74213;SDS011;62576;55.694;37.494;2022-10-13T08:52:59;15.95;;;7.55;;
74213;SDS011;62576;55.694;37.494;2022-10-13T08:55:35;15.95;;;9.85;;
74213;SDS011;62576;55.694;37.494;2022-10-13T08:58:11;16.00;;;8.35;;
74213;SDS011;62576;55.694;37.494;2022-10-13T09:00:45;16.92;;;7.05;;
74213;SDS011;62576;55.694;37.494;2022-10-13T09:03:19;13.20;;;6.88;;
74213;SDS011;62576;55.694;37.494;2022-10-13T09:08:46;11.25;;;5.55;;
74213;SDS011;62576;55.694;37.494;2022-10-13T09:11:22;8.10;;;4.80;;
74213;SDS011;62576;55.694;37.494;2022-10-13T09:13:55;11.98;;;5.88;;
74213;SDS011;62576;55.694;37.494;2022-10-13T09:16:27;11.27;;;6.07;;
74213;SDS011;62576;55.694;37.494;2022-10-13T09:19:11;11.10;;;5.38;;
74213;SDS011;62576;55.694;37.494;2022-10-13T09:21:52;9.13;;;5.03;;
74213;SDS011;62576;55.694;37.494;2022-10-13T09:24:26;9.23;;;4.68;;
74213;SDS011;62576;55.694;37.494;2022-10-13T09:29:43;9.52;;;4.68;;
74213;SDS011;62576;55.694;37.494;2022-10-13T09:32:14;10.48;;;6.10;;
74213;SDS011;62576;55.694;37.494;2022-10-13T09:34:47;16.10;;;7.23;;
74213;SDS011;62576;55.694;37.494;2022-10-13T09:37:21;18.17;;;7.73;;
74213;SDS011;62576;55.694;37.494;2022-10-13T09:39:58;13.30;;;7.20;;
74213;SDS011;62576;55.694;37.494;2022-10-13T09:42:30;16.38;;;7.32;;
74213;SDS011;62576;55.694;37.494;2022-10-13T09:45:01;12.60;;;6.72;;
74213;SDS011;62576;55.694;37.494;2022-10-13T09:47:48;12.10;;;6.38;;
74213;SDS011;62576;55.694;37.494;2022-10-13T09:50:21;15.40;;;7.20;;
74213;SDS011;62576;55.694;37.494;2022-10-13T09:53:07;10.20;;;6.05;;
74213;SDS011;62576;55.694;37.494;2022-10-13T09:55:43;16.00;;;6.90;;
74213;SDS011;62576;55.694;37.494;2022-10-13T09:58:17;13.63;;;6.70;;
74213;SDS011;62576;55.694;37.494;2022-10-13T10:00:53;14.52;;;5.35;;
74213;SDS011;62576;55.694;37.494;2022-10-13T10:03:25;10.23;;;5.03;;
74213;SDS011;62576;55.694;37.494;2022-10-13T10:05:59;6.88;;;4.20;;
74213;SDS011;62576;55.694;37.494;2022-10-13T10:08:35;8.50;;;4.20;;
74213;SDS011;62576;55.694;37.494;2022-10-13T10:11:16;8.32;;;4.60;;
74213;SDS011;62576;55.694;37.494;2022-10-13T10:13:52;7.43;;;3.80;;
74213;SDS011;62576;55.694;37.494;2022-10-13T10:16:24;10.48;;;4.70;;
74213;SDS011;62576;55.694;37.494;2022-10-13T10:19:02;10.18;;;4.22;;
74213;SDS011;62576;55.694;37.494;2022-10-13T10:21:40;7.03;;;4.60;;
74213;SDS011;62576;55.694;37.494;2022-10-13T10:24:20;8.18;;;4.00;;
74213;SDS011;62576;55.694;37.494;2022-10-13T10:26:59;8.55;;;4.70;;
74213;SDS011;62576;55.694;37.494;2022-10-13T10:29:36;6.07;;;4.18;;
74213;SDS011;62576;55.694;37.494;2022-10-13T10:32:19;8.63;;;4.05;;
74213;SDS011;62576;55.694;37.494;2022-10-13T10:34:56;6.22;;;4.32;;
74213;SDS011;62576;55.694;37.494;2022-10-13T10:37:37;11.20;;;4.63;;
74213;SDS011;62576;55.694;37.494;2022-10-13T10:40:31;11.18;;;4.53;;
74213;SDS011;62576;55.694;37.494;2022-10-13T10:43:23;10.55;;;5.70;;
74213;SDS011;62576;55.694;37.494;2022-10-13T10:46:03;8.73;;;4.75;;
74213;SDS011;62576;55.694;37.494;2022-10-13T10:48:43;10.27;;;4.90;;
74213;SDS011;62576;55.694;37.494;2022-10-13T10:51:17;8.70;;;5.72;;
74213;SDS011;62576;55.694;37.494;2022-10-13T10:53:51;10.45;;;5.55;;
74213;SDS011;62576;55.694;37.494;2022-10-13T10:56:28;10.18;;;5.70;;
74213;SDS011;62576;55.694;37.494;2022-10-13T10:59:04;12.68;;;5.38;;
74213;SDS011;62576;55.694;37.494;2022-10-13T11:01:46;12.82;;;6.10;;
74213;SDS011;62576;55.694;37.494;2022-10-13T11:04:28;10.20;;;5.20;;
74213;SDS011;62576;55.694;37.494;2022-10-13T11:07:03;9.60;;;4.70;;
74213;SDS011;62576;55.694;37.494;2022-10-13T11:15:47;8.48;;;4.32;;
74213;SDS011;62576;55.694;37.494;2022-10-13T11:21:21;10.02;;;4.15;;
74213;SDS011;62576;55.694;37.494;2022-10-13T11:23:54;10.43;;;3.85;;
74213;SDS011;62576;55.694;37.494;2022-10-13T11:26:28;7.35;;;3.20;;
74213;SDS011;62576;55.694;37.494;2022-10-13T11:29:01;10.13;;;3.78;;
74213;SDS011;62576;55.694;37.494;2022-10-13T11:34:26;5.45;;;3.05;;
74213;SDS011;62576;55.694;37.494;2022-10-13T11:37:01;10.30;;;3.30;;
74213;SDS011;62576;55.694;37.494;2022-10-13T11:42:50;10.35;;;3.65;;
74213;SDS011;62576;55.694;37.494;2022-10-13T11:45:45;7.20;;;3.60;;
74213;SDS011;62576;55.694;37.494;2022-10-13T11:48:31;10.00;;;3.15;;
74213;SDS011;62576;55.694;37.494;2022-10-13T11:51:15;6.95;;;3.42;;
74213;SDS011;62576;55.694;37.494;2022-10-13T11:53:58;8.65;;;3.38;;
74213;SDS011;62576;55.694;37.494;2022-10-13T11:56:47;5.50;;;2.90;;
74213;SDS011;62576;55.694;37.494;2022-10-13T11:59:27;11.15;;;3.10;;
74213;SDS011;62576;55.694;37.494;2022-10-13T12:02:04;8.03;;;3.17;;
74213;SDS011;62576;55.694;37.494;2022-10-13T12:04:39;5.03;;;2.90;;
74213;SDS011;62576;55.694;37.494;2022-10-13T12:07:10;5.22;;;2.72;;
74213;SDS011;62576;55.694;37.494;2022-10-13T12:09:47;5.00;;;3.03;;
74213;SDS011;62576;55.694;37.494;2022-10-13T12:12:19;5.95;;;2.95;;
74213;SDS011;62576;55.694;37.494;2022-10-13T12:14:53;6.95;;;2.70;;
74213;SDS011;62576;55.694;37.494;2022-10-13T12:17:27;7.38;;;3.13;;
74213;SDS011;62576;55.694;37.494;2022-10-13T12:20:00;5.97;;;2.92;;
74213;SDS011;62576;55.694;37.494;2022-10-13T12:22:50;5.82;;;2.80;;
74213;SDS011;62576;55.694;37.494;2022-10-13T12:25:21;7.22;;;2.90;;
74213;SDS011;62576;55.694;37.494;2022-10-13T12:27:53;10.68;;;2.75;;
74213;SDS011;62576;55.694;37.494;2022-10-13T12:30:26;5.88;;;2.50;;
74213;SDS011;62576;55.694;37.494;2022-10-13T12:32:59;6.97;;;2.53;;
74213;SDS011;62576;55.694;37.494;2022-10-13T12:35:31;6.40;;;2.42;;
74213;SDS011;62576;55.694;37.494;2022-10-13T12:38:07;5.57;;;2.50;;
74213;SDS011;62576;55.694;37.494;2022-10-13T12:40:45;5.15;;;2.47;;
74213;SDS011;62576;55.694;37.494;2022-10-13T12:43:17;7.97;;;2.78;;
74213;SDS011;62576;55.694;37.494;2022-10-13T12:45:52;4.93;;;2.83;;
74213;SDS011;62576;55.694;37.494;2022-10-13T12:48:29;7.70;;;2.95;;
74213;SDS011;62576;55.694;37.494;2022-10-13T12:51:16;8.15;;;3.05;;
74213;SDS011;62576;55.694;37.494;2022-10-13T12:53:51;8.48;;;3.20;;
74213;SDS011;62576;55.694;37.494;2022-10-13T12:56:25;10.73;;;3.30;;
74213;SDS011;62576;55.694;37.494;2022-10-13T12:58:57;5.53;;;3.00;;
74213;SDS011;62576;55.694;37.494;2022-10-13T13:01:29;8.15;;;3.03;;
74213;SDS011;62576;55.694;37.494;2022-10-13T13:04:00;7.00;;;2.92;;
74213;SDS011;62576;55.694;37.494;2022-10-13T13:09:32;8.25;;;2.70;;
74213;SDS011;62576;55.694;37.494;2022-10-13T13:12:22;4.85;;;2.80;;
74213;SDS011;62576;55.694;37.494;2022-10-13T13:14:56;10.70;;;3.20;;
74213;SDS011;62576;55.694;37.494;2022-10-13T13:17:27;5.97;;;3.10;;
74213;SDS011;62576;55.694;37.494;2022-10-13T13:19:59;6.93;;;2.38;;
74213;SDS011;62576;55.694;37.494;2022-10-13T13:22:31;6.85;;;2.92;;
74213;SDS011;62576;55.694;37.494;2022-10-13T13:25:02;6.30;;;2.58;;
74213;SDS011;62576;55.694;37.494;2022-10-13T13:27:35;6.07;;;2.88;;
74213;SDS011;62576;55.694;37.494;2022-10-13T13:30:08;6.97;;;2.60;;
74213;SDS011;62576;55.694;37.494;2022-10-13T13:32:40;6.65;;;2.50;;
74213;SDS011;62576;55.694;37.494;2022-10-13T13:35:10;5.15;;;2.67;;
74213;SDS011;62576;55.694;37.494;2022-10-13T13:37:43;6.40;;;2.97;;
74213;SDS011;62576;55.694;37.494;2022-10-13T13:40:16;3.33;;;2.22;;
74213;SDS011;62576;55.694;37.494;2022-10-13T13:42:54;5.17;;;2.70;;
74213;SDS011;62576;55.694;37.494;2022-10-13T13:45:25;5.65;;;2.45;;
74213;SDS011;62576;55.694;37.494;2022-10-13T13:47:57;9.55;;;2.60;;
74213;SDS011;62576;55.694;37.494;2022-10-13T13:50:30;3.78;;;2.05;;
74213;SDS011;62576;55.694;37.494;2022-10-13T13:53:04;5.00;;;2.35;;
74213;SDS011;62576;55.694;37.494;2022-10-13T13:55:33;3.47;;;2.13;;
74213;SDS011;62576;55.694;37.494;2022-10-13T13:58:05;6.57;;;2.15;;
74213;SDS011;62576;55.694;37.494;2022-10-13T14:00:35;4.28;;;2.20;;
74213;SDS011;62576;55.694;37.494;2022-10-13T14:03:05;7.97;;;2.17;;
74213;SDS011;62576;55.694;37.494;2022-10-13T14:05:37;3.90;;;2.17;;
74213;SDS011;62576;55.694;37.494;2022-10-13T14:08:09;7.88;;;2.10;;
74213;SDS011;62576;55.694;37.494;2022-10-13T14:10:39;5.45;;;2.35;;
74213;SDS011;62576;55.694;37.494;2022-10-13T14:13:12;7.40;;;2.55;;
74213;SDS011;62576;55.694;37.494;2022-10-13T14:15:42;9.80;;;3.00;;
74213;SDS011;62576;55.694;37.494;2022-10-13T14:18:12;6.22;;;2.85;;
74213;SDS011;62576;55.694;37.494;2022-10-13T14:20:43;7.68;;;2.88;;
74213;SDS011;62576;55.694;37.494;2022-10-13T14:23:15;9.27;;;2.97;;
74213;SDS011;62576;55.694;37.494;2022-10-13T14:25:46;7.57;;;2.92;;
74213;SDS011;62576;55.694;37.494;2022-10-13T14:28:16;8.07;;;3.42;;
74213;SDS011;62576;55.694;37.494;2022-10-13T14:30:46;6.57;;;3.45;;
74213;SDS011;62576;55.694;37.494;2022-10-13T14:33:16;9.20;;;3.67;;
74213;SDS011;62576;55.694;37.494;2022-10-13T14:35:46;6.85;;;3.20;;
74213;SDS011;62576;55.694;37.494;2022-10-13T14:38:18;9.27;;;3.97;;
74213;SDS011;62576;55.694;37.494;2022-10-13T14:40:48;8.68;;;3.45;;
74213;SDS011;62576;55.694;37.494;2022-10-13T14:43:18;7.55;;;3.22;;
74213;SDS011;62576;55.694;37.494;2022-10-13T14:45:48;8.55;;;3.03;;
74213;SDS011;62576;55.694;37.494;2022-10-13T14:48:18;9.75;;;3.13;;
74213;SDS011;62576;55.694;37.494;2022-10-13T14:50:49;7.45;;;3.30;;
74213;SDS011;62576;55.694;37.494;2022-10-13T14:53:23;9.48;;;3.72;;
74213;SDS011;62576;55.694;37.494;2022-10-13T14:55:53;10.77;;;3.10;;
74213;SDS011;62576;55.694;37.494;2022-10-13T14:58:23;10.35;;;3.80;;
74213;SDS011;62576;55.694;37.494;2022-10-13T15:00:53;9.90;;;3.55;;
74213;SDS011;62576;55.694;37.494;2022-10-13T15:03:27;10.70;;;3.80;;
74213;SDS011;62576;55.694;37.494;2022-10-13T15:05:58;8.48;;;3.60;;
74213;SDS011;62576;55.694;37.494;2022-10-13T15:08:29;13.70;;;3.65;;
74213;SDS011;62576;55.694;37.494;2022-10-13T15:11:02;12.50;;;3.80;;
74213;SDS011;62576;55.694;37.494;2022-10-13T15:13:33;7.60;;;3.08;;
74213;SDS011;62576;55.694;37.494;2022-10-13T15:16:03;7.82;;;3.97;;
74213;SDS011;62576;55.694;37.494;2022-10-13T15:18:33;12.43;;;3.88;;
74213;SDS011;62576;55.694;37.494;2022-10-13T15:21:04;11.25;;;3.50;;
74213;SDS011;62576;55.694;37.494;2022-10-13T15:23:37;48.50;;;4.97;;
74213;SDS011;62576;55.694;37.494;2022-10-13T15:26:07;9.48;;;3.00;;